createdAt,value
2023-02-26T04:13:02.845Z,17.20
2023-02-26T05:17:00.704Z,17.18
2023-02-26T05:37:07.786Z,16.11
2023-02-26T05:55:38.613Z,17.04
2023-02-26T06:00:31.795Z,17.39
2023-02-26T06:05:25.082Z,17.42
2023-02-26T06:10:19.501Z,17.47
2023-02-26T06:15:19.113Z,17.53
2023-02-26T06:20:13.628Z,17.25
2023-02-26T06:25:07.958Z,17.62
2023-02-26T06:30:01.267Z,17.67
2023-02-26T06:34:55.983Z,17.19
2023-02-26T06:39:49.200Z,17.48
2023-02-26T06:44:42.486Z,17.55
2023-02-26T06:49:35.655Z,17.84
2023-02-26T06:54:30.307Z,17.73
2023-02-26T06:59:23.556Z,17.95
2023-02-26T07:04:17.404Z,18.03
2023-02-26T07:09:11.853Z,17.94
2023-02-26T07:14:06.527Z,18.13
2023-02-26T07:18:59.681Z,17.95
2023-02-26T07:23:53.066Z,17.72
2023-02-26T07:28:48.586Z,18.17
2023-02-26T07:33:43.768Z,18.36
2023-02-26T07:38:37.063Z,18.30
2023-02-26T07:43:30.468Z,18.31
2023-02-26T07:48:26.590Z,18.57
2023-02-26T07:53:24.096Z,18.11
2023-02-26T07:58:17.391Z,18.37
2023-02-26T08:03:10.674Z,18.36
2023-02-26T08:08:04.087Z,18.32
2023-02-26T08:12:58.808Z,18.83
2023-02-26T08:17:55.161Z,18.27
2023-02-26T08:22:48.627Z,18.64
2023-02-26T08:27:44.342Z,18.37
2023-02-26T08:32:40.050Z,19.00
2023-02-26T08:37:33.833Z,19.16
2023-02-26T08:42:27.110Z,18.70
2023-02-26T08:47:28.457Z,19.43
2023-02-26T08:52:25.274Z,19.01
2023-02-26T08:57:18.751Z,19.51
2023-02-26T09:02:14.095Z,19.88
2023-02-26T09:07:07.595Z,20.03
2023-02-26T09:12:04.801Z,19.77
2023-02-26T09:16:58.205Z,20.17
2023-02-26T09:21:54.475Z,20.16
2023-02-26T09:26:47.658Z,20.48
2023-02-26T09:31:42.505Z,20.38
2023-02-26T09:36:37.657Z,20.62
2023-02-26T09:41:34.367Z,21.06
2023-02-26T09:46:35.312Z,21.35
2023-02-26T09:51:31.614Z,21.40
2023-02-26T09:56:27.973Z,21.41
2023-02-26T10:01:29.880Z,21.26
2023-02-26T10:06:28.029Z,21.34
2023-02-26T10:11:31.197Z,21.72
2023-02-26T10:16:29.051Z,21.74
2023-02-26T10:21:27.717Z,22.06
2023-02-26T10:26:25.065Z,21.94
2023-02-26T10:31:26.682Z,21.90
2023-02-26T10:36:26.161Z,22.16
2023-02-26T10:41:26.013Z,21.63
2023-02-26T10:46:32.656Z,22.28
2023-02-26T10:51:32.588Z,22.70
2023-02-26T10:56:31.613Z,22.59
2023-02-26T11:01:27.784Z,22.93
2023-02-26T11:06:24.176Z,22.88
2023-02-26T11:11:42.097Z,22.85
2023-02-26T11:16:43.834Z,22.87
2023-02-26T11:22:00.093Z,22.64
2023-02-26T11:27:04.343Z,22.99
2023-02-26T11:31:58.426Z,23.31
2023-02-26T11:36:53.792Z,23.60
2023-02-26T11:42:02.386Z,23.92
2023-02-26T11:47:10.098Z,24.25
2023-02-26T11:52:21.347Z,24.18
2023-02-26T11:57:20.412Z,23.91
2023-02-26T12:02:21.862Z,22.90
2023-02-26T12:07:18.773Z,23.62
2023-02-26T12:12:27.151Z,23.08
2023-02-26T12:17:36.367Z,23.18
2023-02-26T12:22:43.204Z,22.97
2023-02-26T12:27:55.333Z,23.01
2023-02-26T12:33:07.330Z,23.40
2023-02-26T12:38:10.332Z,23.41
2023-02-26T12:43:13.647Z,23.38
2023-02-26T12:48:38.929Z,22.95
2023-02-26T12:54:01.247Z,22.92
2023-02-26T12:59:18.193Z,22.73
2023-02-26T13:04:43.983Z,22.56
2023-02-26T13:09:53.061Z,22.42
2023-02-26T13:14:54.795Z,22.07
2023-02-26T13:19:52.625Z,22.29
2023-02-26T13:24:53.973Z,22.20
2023-02-26T13:29:58.054Z,21.37
2023-02-26T13:34:58.837Z,21.69
2023-02-26T13:40:07.404Z,21.07
2023-02-26T13:45:21.793Z,20.91
2023-02-26T13:50:31.146Z,21.09
2023-02-26T13:55:42.797Z,20.91
2023-02-26T14:00:48.547Z,20.92
2023-02-26T14:06:11.916Z,20.69
2023-02-26T14:11:06.180Z,20.74
2023-02-26T14:16:02.552Z,20.64
2023-02-26T14:21:34.138Z,20.41
2023-02-26T14:26:33.695Z,20.05
2023-02-26T14:31:28.255Z,20.04
2023-02-26T14:36:29.827Z,20.29
2023-02-26T14:41:32.938Z,20.12
2023-02-26T14:46:26.980Z,20.00
2023-02-26T14:51:30.349Z,20.19
2023-02-26T14:56:35.641Z,20.20
2023-02-26T15:01:44.751Z,20.23
2023-02-26T15:06:55.777Z,20.26
2023-02-26T15:12:10.870Z,20.11
2023-02-26T15:17:16.681Z,19.47
2023-02-26T15:22:24.599Z,19.44
2023-02-26T15:27:21.651Z,19.79
2023-02-26T15:32:23.055Z,19.60
2023-02-26T15:37:25.426Z,19.57
2023-02-26T15:42:30.056Z,19.38
2023-02-26T15:47:23.924Z,19.87
2023-02-26T15:52:21.886Z,19.33
2023-02-26T15:57:17.259Z,19.78
2023-02-26T16:02:15.762Z,19.68
2023-02-26T16:07:12.261Z,19.45
2023-02-26T16:12:11.011Z,18.59
2023-02-26T16:22:51.337Z,19.46
2023-02-26T16:27:55.495Z,19.35
2023-02-26T16:32:56.138Z,18.32
2023-02-26T16:37:57.986Z,19.14
2023-02-26T16:43:06.490Z,18.70
2023-02-26T16:48:01.396Z,18.59
2023-02-26T16:53:05.672Z,19.02
2023-02-26T16:58:06.165Z,18.93
2023-02-26T17:03:14.103Z,17.79
2023-02-26T17:08:16.043Z,17.88
2023-02-26T17:13:16.828Z,17.71
2023-02-26T17:18:10.531Z,17.99
2023-02-26T17:23:11.776Z,18.11
2023-02-26T17:28:07.718Z,17.52
2023-02-26T17:33:05.198Z,17.66
2023-02-26T17:38:02.828Z,18.06
2023-02-26T17:43:03.896Z,17.39
2023-02-26T17:48:01.404Z,17.71
2023-02-26T17:52:57.266Z,18.13
2023-02-26T17:57:52.905Z,18.45
2023-02-26T18:02:47.102Z,18.22
2023-02-26T18:07:45.996Z,18.41
2023-02-26T18:12:41.540Z,18.49
2023-02-26T18:23:14.215Z,17.43
2023-02-26T18:28:24.282Z,18.10
2023-02-26T19:37:27.358Z,18.14
2023-02-26T19:43:31.180Z,17.05
2023-02-26T19:49:34.362Z,17.70
2023-02-26T20:01:47.709Z,16.75
2023-02-26T20:46:18.228Z,16.72
2023-02-26T20:57:31.600Z,16.93
2023-02-26T21:15:13.321Z,16.90
2023-02-26T21:20:18.782Z,16.58
2023-02-26T21:25:15.625Z,16.57
2023-02-26T21:30:27.241Z,17.45
2023-02-26T21:35:25.140Z,17.04
2023-02-26T21:40:19.576Z,17.54
2023-02-26T21:45:17.971Z,16.50
2023-02-26T21:50:27.518Z,16.37
2023-02-26T21:55:45.326Z,16.50
2023-02-26T22:00:46.287Z,17.63
2023-02-26T22:06:26.883Z,17.03
2023-02-26T22:11:42.381Z,16.00
2023-02-26T22:16:38.024Z,14.79
2023-02-26T22:21:35.955Z,14.28
2023-02-26T22:26:29.638Z,13.54
2023-02-26T22:31:25.029Z,12.93
2023-02-26T22:36:20.939Z,12.23
2023-02-26T22:41:14.454Z,11.58
2023-02-26T22:46:12.782Z,11.17
2023-02-26T22:51:10.874Z,10.39
2023-02-26T22:56:07.353Z,9.41
2023-02-26T23:01:09.474Z,9.03
2023-02-26T23:06:04.422Z,9.44
2023-02-26T23:11:06.931Z,8.54
2023-02-26T23:16:06.674Z,8.31
2023-02-26T23:21:10.373Z,8.11
2023-02-26T23:26:26.520Z,9.34
2023-02-26T23:31:29.471Z,7.98
2023-02-26T23:36:40.196Z,8.46
2023-02-26T23:41:38.666Z,8.43
2023-02-26T23:46:32.182Z,8.60
2023-02-26T23:51:28.693Z,7.96
2023-02-26T23:56:30.561Z,8.18
